Time;durP1;ratioP1;P1;durP2;ratioP2;P2;SDS_P1;SDS_P2;PMS_P1;PMS_P2;Temp;Humidity;BMP_temperature;BMP_pressure;BME280_temperature;BME280_humidity;BME280_pressure;Samples;Min_cycle;Max_cycle;Signal;HPM_P1;HPM_P2
2022/09/27 00:01:22;;;;;;;21.47;13.17;;;;;;;8.40;100.00;96868.70;1736435;82;21423;-90
2022/09/27 00:03:48;;;;;;;19.15;13.53;;;;;;;8.33;100.00;96867.69;1736049;81;20922;-84
2022/09/27 00:06:26;;;;;;;22.42;12.98;;;;;;;8.30;100.00;96862.09;1736001;82;20970;-84
2022/09/27 00:08:52;;;;;;;20.57;13.58;;;;;;;8.29;100.00;96861.29;1736268;81;21084;-90
2022/09/27 00:11:34;;;;;;;20.88;14.00;;;;;;;8.29;100.00;96856.41;1736069;82;21800;-88
2022/09/27 00:14:00;;;;;;;20.55;13.15;;;;;;;8.29;100.00;96852.36;1735920;81;21081;-89
2022/09/27 00:16:31;;;;;;;17.60;13.30;;;;;;;8.28;100.00;96841.31;1737838;82;20978;-85
2022/09/27 00:19:03;;;;;;;20.70;13.50;;;;;;;8.36;100.00;96843.38;1736051;81;21031;-87
2022/09/27 00:21:29;;;;;;;21.17;11.53;;;;;;;8.38;100.00;96836.61;1726008;82;21033;-85
2022/09/27 00:23:56;;;;;;;17.48;11.00;;;;;;;8.40;100.00;96841.16;1737130;82;21303;-89
2022/09/27 00:26:22;;;;;;;17.45;11.65;;;;;;;8.31;100.00;96832.09;1739525;82;21024;-84
2022/09/27 00:28:48;;;;;;;18.95;11.48;;;;;;;8.31;100.00;96832.09;1739355;82;21024;-89
2022/09/27 00:31:21;;;;;;;21.80;11.45;;;;;;;8.33;100.00;96835.84;1739651;82;21542;-84
2022/09/27 00:33:48;;;;;;;21.12;12.05;;;;;;;8.31;100.00;96829.95;1739427;82;21059;-89
2022/09/27 00:36:15;;;;;;;19.07;12.23;;;;;;;8.31;100.00;96829.95;1739509;82;21290;-89
2022/09/27 00:38:41;;;;;;;24.27;13.25;;;;;;;8.34;100.00;96826.66;1739363;82;21028;-84
2022/09/27 00:41:15;;;;;;;20.12;12.03;;;;;;;8.38;100.00;96822.31;1739523;82;21529;-84
2022/09/27 00:43:51;;;;;;;20.70;12.60;;;;;;;8.41;100.00;96819.02;1712537;82;21024;-84
2022/09/27 00:46:36;;;;;;;21.57;11.25;;;;;;;8.43;100.00;96818.97;1708714;84;21067;-84
2022/09/27 00:49:24;;;;;;;19.67;11.60;;;;;;;8.43;100.00;96818.97;1709589;82;21110;-89
2022/09/27 00:51:57;;;;;;;20.17;12.03;;;;;;;8.46;100.00;96809.50;1709838;82;21004;-89
2022/09/27 00:54:24;;;;;;;20.80;11.63;;;;;;;8.46;100.00;96800.85;1709898;84;21120;-85
2022/09/27 00:56:50;;;;;;;17.05;11.48;;;;;;;8.49;100.00;96796.75;1719716;83;21465;-84
2022/09/27 00:59:23;;;;;;;18.82;11.33;;;;;;;8.49;100.00;96800.80;1719428;82;20910;-88
2022/09/27 01:01:49;;;;;;;20.82;12.13;;;;;;;8.42;100.00;96794.42;1719931;83;21203;-85
2022/09/27 01:04:21;;;;;;;19.75;11.90;;;;;;;8.40;100.00;96795.83;1719508;82;21041;-84
2022/09/27 01:06:47;;;;;;;19.27;13.10;;;;;;;8.31;100.00;96781.37;1719884;83;21103;-85
2022/09/27 01:09:13;;;;;;;22.37;12.60;;;;;;;8.29;100.00;96773.57;1719580;82;21458;-84
2022/09/27 01:12:01;;;;;;;17.07;9.70;;;;;;;8.25;100.00;96781.98;1719812;83;20993;-89
2022/09/27 01:14:34;;;;;;;;;;;;;;;8.25;100.00;96789.28;1693289;83;21827;-84
2022/09/27 01:17:44;;;;;;;18.42;10.65;;;;;;;8.03;100.00;96775.04;1701674;83;20174;-84
2022/09/27 01:20:34;;;;;;;16.85;9.78;;;;;;;8.03;100.00;96775.04;1702186;84;20999;-89
2022/09/27 01:23:21;;;;;;;14.65;10.53;;;;;;;7.91;100.00;96775.49;1713896;81;21091;-85
2022/09/27 01:26:11;;;;;;;14.60;9.13;;;;;;;7.89;100.00;96770.40;1726909;83;21048;-89
2022/09/27 01:29:22;;;;;;;14.83;9.20;;;;;;;7.85;100.00;96765.87;1728189;81;21173;-89
2022/09/27 01:32:08;;;;;;;14.38;9.38;;;;;;;7.82;100.00;96769.16;1727339;83;21003;-84
2022/09/27 01:34:45;;;;;;;14.93;8.45;;;;;;;7.78;100.00;96760.06;1727100;83;21020;-86
2022/09/27 01:37:32;;;;;;;16.35;10.43;;;;;;;7.70;100.00;96760.72;1728371;81;21471;-85
2022/09/27 01:40:30;;;;;;;16.70;9.95;;;;;;;7.63;100.00;96748.94;1728527;82;21007;-84
2022/09/27 01:43:11;;;;;;;15.95;9.93;;;;;;;7.59;100.00;96751.95;1730049;81;21901;-88
2022/09/27 01:45:48;;;;;;;14.25;8.93;;;;;;;7.60;100.00;96753.00;1730918;82;20982;-85
2022/09/27 01:48:20;;;;;;;12.18;8.85;;;;;;;7.60;100.00;96753.55;1731125;81;21006;-84
2022/09/27 01:51:10;;;;;;;16.40;9.80;;;;;;;7.55;100.00;96753.63;1731277;82;21003;-89
2022/09/27 01:53:39;;;;;;;18.85;9.23;;;;;;;7.49;100.00;96742.11;1731242;81;21503;-84
2022/09/27 01:56:09;;;;;;;19.37;10.00;;;;;;;7.48;100.00;96739.70;1731383;82;28048;-89
2022/09/27 01:58:52;;;;;;;15.20;9.63;;;;;;;7.47;100.00;96744.84;1730975;81;20998;-89
2022/09/27 02:01:18;;;;;;;17.30;10.00;;;;;;;7.46;100.00;96742.70;1731272;82;21050;-89
2022/09/27 02:03:47;;;;;;;16.80;11.75;;;;;;;7.46;100.00;96739.20;1731183;81;20914;-90
2022/09/27 02:06:27;;;;;;;14.55;10.13;;;;;;;7.44;100.00;96742.75;1731477;82;21007;-84
2022/09/27 02:09:04;;;;;;;17.15;9.63;;;;;;;7.41;100.00;96741.41;1732565;81;21501;-89
2022/09/27 02:11:30;;;;;;;14.07;9.33;;;;;;;7.40;100.00;96739.81;1712406;82;21522;-87
2022/09/27 02:14:06;;;;;;;12.13;8.90;;;;;;;7.36;100.00;96737.45;1731010;81;20891;-89
2022/09/27 02:16:44;;;;;;;13.85;9.38;;;;;;;7.37;100.00;96732.86;1731145;82;21022;-89
2022/09/27 02:19:34;;;;;;;15.63;10.23;;;;;;;7.34;100.00;96725.59;1731006;81;20963;-89
2022/09/27 02:22:11;;;;;;;16.70;10.13;;;;;;;7.35;100.00;96716.98;1730413;82;21089;-88
2022/09/27 02:24:45;;;;;;;12.05;8.33;;;;;;;7.33;100.00;96719.15;1731569;82;21057;-88
2022/09/27 02:27:16;;;;;;;14.63;8.20;;;;;;;7.27;100.00;96716.28;1729371;81;22172;-84
2022/09/27 02:29:50;;;;;;;17.67;9.48;;;;;;;7.23;100.00;96707.97;1731734;82;21488;-85
2022/09/27 02:32:16;;;;;;;12.53;8.88;;;;;;;7.17;100.00;96710.45;1731791;81;21175;-89
2022/09/27 02:34:42;;;;;;;17.17;9.33;;;;;;;7.17;100.00;96707.77;1731990;82;21319;-85
2022/09/27 02:37:08;;;;;;;13.88;8.50;;;;;;;7.21;100.00;96703.97;1731583;82;21563;-88
2022/09/27 02:39:34;;;;;;;19.42;10.58;;;;;;;7.24;100.00;96704.17;1731808;82;20993;-85
2022/09/27 02:41:59;;;;;;;19.05;10.70;;;;;;;7.22;100.00;96702.87;1730143;81;20966;-84
2022/09/27 02:44:25;;;;;;;16.15;9.25;;;;;;;7.23;100.00;96704.47;1722873;83;20880;-84
2022/09/27 02:47:27;;;;;;;26.00;10.05;;;;;;;7.24;100.00;96706.87;1720590;83;21252;-88
2022/09/27 02:50:32;;;;;;;18.42;9.08;;;;;;;7.26;100.00;96707.41;1723237;83;21557;-84
2022/09/27 02:53:21;;;;;;;35.00;12.70;;;;;;;7.23;100.00;96701.23;1722756;81;20995;-88
2022/09/27 02:55:53;;;;;;;;;;;;;;;7.25;100.00;96707.67;1725917;83;21023;-85
2022/09/27 02:58:39;;;;;;;12.75;8.13;;;;;;;7.29;100.00;96701.97;1723161;81;20145;-89
2022/09/27 03:01:37;;;;;;;12.45;8.48;;;;;;;7.33;100.00;96709.72;1717904;83;21019;-84
2022/09/27 03:04:30;;;;;;;19.92;9.08;;;;;;;7.30;100.00;96704.38;1722663;81;21082;-84
2022/09/27 03:06:56;;;;;;;14.23;8.58;;;;;;;7.28;100.00;96707.91;1709166;81;21074;-89
2022/09/27 03:09:24;;;;;;;15.45;8.78;;;;;;;7.23;100.00;96698.53;1723145;83;20860;-84
2022/09/27 03:11:50;;;;;;;13.62;9.63;;;;;;;7.24;100.00;96694.74;1723200;83;20987;-89
2022/09/27 03:14:16;;;;;;;16.75;9.55;;;;;;;7.22;100.00;96691.55;1722943;81;21042;-88
2022/09/27 03:16:42;;;;;;;14.95;9.88;;;;;;;7.19;100.00;96693.48;1722975;83;21050;-85
2022/09/27 03:19:08;;;;;;;14.53;10.60;;;;;;;7.19;100.00;96696.72;1722999;81;20907;-89
2022/09/27 03:21:34;;;;;;;10.90;7.58;;;;;;;7.19;100.00;96692.69;1723250;83;21522;-84
2022/09/27 03:24:01;;;;;;;14.50;8.60;;;;;;;7.16;100.00;96688.66;1723158;81;21570;-89
2022/09/27 03:26:27;;;;;;;15.40;9.60;;;;;;;7.08;100.00;96694.69;1723298;83;21137;-84
2022/09/27 03:28:53;;;;;;;14.58;9.03;;;;;;;7.07;100.00;96697.92;1722846;81;20950;-85
2022/09/27 03:31:18;;;;;;;16.37;9.05;;;;;;;7.04;100.00;96694.47;1723236;83;20915;-89
2022/09/27 03:33:44;;;;;;;13.60;8.55;;;;;;;7.05;100.00;96696.07;1722926;81;20899;-85
2022/09/27 03:36:10;;;;;;;14.93;9.40;;;;;;;7.06;100.00;96690.94;1723320;83;20919;-84
2022/09/27 03:38:37;;;;;;;14.00;9.15;;;;;;;7.05;100.00;96682.61;1723120;81;21295;-89
2022/09/27 03:41:03;;;;;;;13.95;8.68;;;;;;;7.05;100.00;96683.95;1723639;83;21007;-84
2022/09/27 03:43:29;;;;;;;14.38;9.63;;;;;;;7.05;100.00;96679.11;1723087;81;21010;-90
2022/09/27 03:45:55;;;;;;;14.35;10.08;;;;;;;7.05;100.00;96675.07;1723204;83;20883;-89
2022/09/27 03:48:21;;;;;;;15.72;9.65;;;;;;;7.03;100.00;96671.88;1722918;81;20979;-84
2022/09/27 03:50:47;;;;;;;12.98;9.20;;;;;;;7.01;100.00;96667.33;1723264;83;21162;-89
2022/09/27 03:53:13;;;;;;;12.50;8.38;;;;;;;6.94;100.00;96658.80;1723014;81;20914;-83
2022/09/27 03:55:39;;;;;;;17.02;10.15;;;;;;;6.92;100.00;96650.18;1723252;83;20883;-89
2022/09/27 03:58:05;;;;;;;12.43;8.48;;;;;;;6.88;100.00;96648.63;1722934;81;20855;-84
2022/09/27 04:00:32;;;;;;;21.02;11.28;;;;;;;6.86;100.00;96651.36;1722953;83;20984;-83
2022/09/27 04:02:59;;;;;;;33.13;14.75;;;;;;;6.81;100.00;96656.25;1723135;81;21826;-84
2022/09/27 04:05:25;;;;;;;31.17;14.80;;;;;;;6.79;100.00;96654.39;1723521;83;21002;-85
2022/09/27 04:07:51;;;;;;;36.30;15.95;;;;;;;6.73;100.00;96651.50;1723002;81;21058;-85
2022/09/27 04:10:17;;;;;;;31.07;15.45;;;;;;;6.70;100.00;96651.53;1723067;83;20991;-84
2022/09/27 04:12:43;;;;;;;25.30;15.45;;;;;;;6.67;100.00;96649.98;1723046;81;21381;-84
2022/09/27 04:15:10;;;;;;;25.88;13.75;;;;;;;6.64;100.00;96654.02;1723254;83;21173;-84
2022/09/27 04:17:36;;;;;;;24.55;14.33;;;;;;;6.61;100.00;96646.53;1722858;81;21527;-85
2022/09/27 04:20:03;;;;;;;17.35;9.58;;;;;;;6.60;100.00;96653.01;1706240;83;20951;-88
2022/09/27 04:22:29;;;;;;;13.22;8.60;;;;;;;6.61;100.00;96657.84;1725022;82;21065;-84
2022/09/27 04:24:55;;;;;;;15.28;10.08;;;;;;;6.54;100.00;96648.77;1731474;82;21072;-85
2022/09/27 04:27:21;;;;;;;13.18;7.90;;;;;;;6.48;100.00;96641.83;1731709;82;21714;-89
2022/09/27 04:29:47;;;;;;;12.58;8.35;;;;;;;6.44;100.00;96642.95;1731310;82;20992;-89
2022/09/27 04:32:13;;;;;;;14.95;8.88;;;;;;;6.41;100.00;96641.36;1731763;82;20981;-84
2022/09/27 04:37:24;;;;;;;14.15;8.73;;;;;;;6.34;100.00;96640.38;1731682;82;21036;-84
2022/09/27 04:39:49;;;;;;;14.68;9.35;;;;;;;6.28;100.00;96638.83;1731813;82;21659;-84
2022/09/27 04:42:16;;;;;;;14.87;8.80;;;;;;;6.25;100.00;96640.75;1729045;81;21108;-85
2022/09/27 04:44:42;;;;;;;10.58;7.78;;;;;;;6.18;100.00;96637.05;1722854;83;21042;-88
2022/09/27 04:47:08;;;;;;;15.53;8.03;;;;;;;6.18;100.00;96637.05;1723070;81;21059;-89
2022/09/27 04:49:34;;;;;;;24.60;9.08;;;;;;;6.16;100.00;96635.73;1696234;83;20975;-85
2022/09/27 04:52:00;;;;;;;12.85;8.35;;;;;;;6.12;100.00;96634.14;1723206;81;21056;-88
2022/09/27 04:54:26;;;;;;;14.53;8.10;;;;;;;6.10;100.00;96630.94;1722889;83;21006;-88
2022/09/27 04:56:52;;;;;;;14.47;7.97;;;;;;;6.09;100.00;96627.20;1724897;81;21657;-87
2022/09/27 04:59:18;;;;;;;17.35;8.63;;;;;;;6.05;100.00;96618.88;1730976;81;20865;-83
2022/09/27 05:01:44;;;;;;;16.73;8.00;;;;;;;6.04;100.00;96621.31;1725959;81;20893;-84
2022/09/27 05:04:10;;;;;;;10.03;7.12;;;;;;;6.06;100.00;96612.95;1728260;81;21305;-83
2022/09/27 05:06:36;;;;;;;8.85;6.95;;;;;;;6.09;100.00;96613.20;1728779;82;20886;-89
2022/09/27 05:09:02;;;;;;;22.02;8.58;;;;;;;6.12;100.00;96610.48;1730104;83;20892;-89
2022/09/27 05:11:28;;;;;;;12.00;7.22;;;;;;;6.15;100.00;96614.77;1730059;82;21024;-84
2022/09/27 05:13:54;;;;;;;11.93;7.08;;;;;;;6.15;100.00;96609.39;1728301;81;21050;-83
2022/09/27 05:16:20;;;;;;;13.65;7.12;;;;;;;6.19;100.00;96610.95;1729447;82;21109;-89
2022/09/27 05:18:46;;;;;;;10.50;7.58;;;;;;;6.27;100.00;96610.87;1728279;81;21582;-88
2022/09/27 05:21:12;;;;;;;15.05;8.85;;;;;;;6.30;100.00;96611.09;1728411;83;20881;-85
2022/09/27 05:23:38;;;;;;;12.68;7.85;;;;;;;6.32;100.00;96604.88;1730542;82;21033;-85
2022/09/27 05:26:05;;;;;;;9.65;6.95;;;;;;;6.37;100.00;96602.13;1736617;81;20890;-88
2022/09/27 05:28:31;;;;;;;12.68;8.15;;;;;;;6.42;100.00;96593.22;1732337;81;21132;-89
2022/09/27 05:30:57;;;;;;;11.78;8.40;;;;;;;6.45;100.00;96600.16;1736287;81;20909;-88
2022/09/27 05:33:23;;;;;;;11.22;7.67;;;;;;;6.48;100.00;96594.73;1727964;81;21075;-83
2022/09/27 05:35:56;;;;;;;11.70;8.10;;;;;;;6.56;100.00;96594.64;1761133;80;20994;-89
2022/09/27 05:38:22;;;;;;;11.80;8.68;;;;;;;6.59;100.00;96587.36;1722778;82;21115;-89
2022/09/27 05:40:50;;;;;;;14.15;8.65;;;;;;;6.69;100.00;96585.87;1724626;83;21487;-89
2022/09/27 05:43:17;;;;;;;12.85;7.22;;;;;;;6.78;100.00;96589.52;1748532;81;21003;-84
2022/09/27 05:45:43;;;;;;;14.50;8.28;;;;;;;6.84;100.00;96589.72;1752120;81;21100;-89
2022/09/27 05:48:11;;;;;;;15.30;8.53;;;;;;;6.97;100.00;96586.84;1754037;80;21553;-88
2022/09/27 05:50:37;;;;;;;19.60;9.45;;;;;;;7.10;100.00;96589.36;1754419;81;21435;-89
2022/09/27 05:53:03;;;;;;;15.58;9.95;;;;;;;7.25;100.00;96589.91;1763112;79;21198;-88
2022/09/27 05:55:29;;;;;;;17.60;9.50;;;;;;;7.38;100.00;96587.04;1755839;80;21494;-84
2022/09/27 05:58:04;;;;;;;17.67;10.98;;;;;;;7.48;100.00;96586.87;1753967;80;20850;-89
2022/09/27 06:00:31;;;;;;;20.95;10.50;;;;;;;7.57;100.00;96579.71;1763576;80;20993;-88
2022/09/27 06:03:02;;;;;;;18.92;11.15;;;;;;;7.70;100.00;96585.45;1753597;79;21110;-84
2022/09/27 06:05:29;;;;;;;19.82;11.43;;;;;;;7.78;100.00;96585.58;1750373;80;21140;-84
2022/09/27 06:08:00;;;;;;;25.57;12.28;;;;;;;7.93;100.00;96588.53;1758077;80;21044;-84
2022/09/27 06:10:27;;;;;;;11.90;8.10;;;;;;;8.04;100.00;96581.08;1745643;81;21194;-89
2022/09/27 06:12:54;;;;;;;20.15;10.30;;;;;;;8.26;100.00;96587.13;1751528;80;21562;-84
2022/09/27 06:15:20;;;;;;;19.35;11.08;;;;;;;8.39;100.00;96593.93;1756040;80;21086;-84
2022/09/27 06:17:46;;;;;;;11.12;7.45;;;;;;;8.56;100.00;96593.33;1754434;80;21188;-88
2022/09/27 06:20:12;;;;;;;10.48;7.90;;;;;;;8.72;100.00;96594.62;1756988;81;21646;-84
2022/09/27 06:22:38;;;;;;;16.02;8.58;;;;;;;8.82;100.00;96582.00;1741501;81;20999;-86
2022/09/27 06:25:05;;;;;;;13.22;7.58;;;;;;;8.90;100.00;96581.28;1736416;81;21554;-88
2022/09/27 06:27:31;;;;;;;14.65;7.97;;;;;;;8.99;100.00;96580.81;1739899;81;21027;-84
2022/09/27 06:29:57;;;;;;;15.15;8.05;;;;;;;9.11;100.00;96582.42;1722957;81;22840;-89
2022/09/27 06:32:23;;;;;;;13.18;8.43;;;;;;;9.21;100.00;96575.42;1737656;81;20967;-88
2022/09/27 06:34:49;;;;;;;11.95;8.03;;;;;;;9.32;100.00;96574.11;1752973;80;21427;-87
2022/09/27 06:37:15;;;;;;;12.70;8.20;;;;;;;9.52;100.00;96578.22;1729489;81;20954;-84
2022/09/27 06:39:41;;;;;;;12.70;7.70;;;;;;;9.64;100.00;96576.86;1726936;81;20890;-89
2022/09/27 06:42:09;;;;;;;14.85;7.90;;;;;;;9.81;100.00;96572.35;1727108;80;21222;-84
2022/09/27 06:44:35;;;;;;;9.50;6.92;;;;;;;9.89;100.00;96574.86;1719281;81;20988;-90
2022/09/27 06:47:00;;;;;;;11.45;7.03;;;;;;;9.97;100.00;96579.52;1726973;81;20960;-89
2022/09/27 06:49:26;;;;;;;13.83;5.65;;;;;;;10.08;100.00;96581.41;1746388;81;20877;-90
2022/09/27 06:51:53;;;;;;;10.03;6.22;;;;;;;10.34;100.00;96578.31;1747216;80;20999;-90
2022/09/27 06:54:19;;;;;;;14.13;5.97;;;;;;;10.54;100.00;96576.94;1747008;81;21033;-90
2022/09/27 06:56:48;;;;;;;13.28;6.22;;;;;;;10.85;100.00;96578.23;1747324;81;21104;-90
2022/09/27 07:01:59;;;;;;;8.55;5.65;;;;;;;11.70;100.00;96573.67;1687478;82;21068;-90
2022/09/27 07:04:25;;;;;;;8.98;5.97;;;;;;;11.92;100.00;96567.30;1731187;82;21011;-89
2022/09/27 07:06:52;;;;;;;9.45;6.92;;;;;;;12.08;100.00;96564.30;1738642;81;21356;-85
2022/09/27 07:09:18;;;;;;;10.98;6.97;;;;;;;12.38;100.00;96563.77;1739628;80;21012;-90
2022/09/27 07:11:44;;;;;;;9.38;6.75;;;;;;;12.43;100.00;96561.69;1725290;82;20895;-89
2022/09/27 07:14:10;;;;;;;14.35;6.22;;;;;;;12.62;100.00;96568.06;1738376;80;21075;-85
2022/09/27 07:16:37;;;;;;;8.40;5.35;;;;;;;12.94;100.00;96557.09;1733654;81;21044;-84
2022/09/27 07:19:03;;;;;;;9.13;6.33;;;;;;;13.27;100.00;96553.69;1739544;81;22023;-84
2022/09/27 07:21:29;;;;;;;10.15;6.42;;;;;;;13.38;100.00;96552.72;1725570;81;21069;-90
2022/09/27 07:23:54;;;;;;;6.12;5.10;;;;;;;13.69;100.00;96555.02;1733510;81;20905;-84
2022/09/27 07:26:21;;;;;;;9.88;6.03;;;;;;;14.06;100.00;96567.59;1733696;81;21008;-90
2022/09/27 07:28:47;;;;;;;6.65;5.15;;;;;;;14.21;99.17;96560.70;1734198;81;21631;-85
2022/09/27 07:31:13;;;;;;;9.53;4.50;;;;;;;14.16;100.00;96554.67;1729145;81;21178;-89
2022/09/27 07:33:39;;;;;;;8.88;5.78;;;;;;;14.28;98.65;96551.41;1728131;81;21010;-89
2022/09/27 07:36:09;;;;;;;8.30;5.20;;;;;;;14.78;98.58;96546.77;1738114;81;20913;-85
2022/09/27 07:38:35;;;;;;;8.28;5.15;;;;;;;15.08;97.52;96550.84;1760427;79;21099;-89
2022/09/27 07:41:06;;;;;;;7.20;5.35;;;;;;;15.06;97.16;96542.78;1755594;80;21504;-85
2022/09/27 07:43:32;;;;;;;8.45;5.28;;;;;;;14.83;97.93;96540.53;1761711;79;22641;-85
2022/09/27 07:45:58;;;;;;;10.18;6.22;;;;;;;15.23;98.48;96538.42;1754137;80;20889;-85
2022/09/27 07:48:24;;;;;;;7.47;5.30;;;;;;;15.86;96.54;96530.45;1760135;80;22213;-86
2022/09/27 07:50:51;;;;;;;7.45;5.72;;;;;;;16.43;95.21;96532.50;1754794;80;20906;-90
2022/09/27 07:53:17;;;;;;;8.30;5.47;;;;;;;17.12;94.69;96528.27;1758189;79;20985;-89
2022/09/27 07:55:51;;;;;;;7.53;5.65;;;;;;;17.65;90.30;96523.89;1751323;80;21151;-85
2022/09/27 07:58:18;;;;;;;8.75;5.00;;;;;;;17.53;86.60;96519.94;1752799;80;21056;-86
2022/09/27 08:00:43;;;;;;;7.65;4.35;;;;;;;18.23;89.67;96514.80;1731532;81;21502;-86
2022/09/27 08:03:15;;;;;;;8.75;5.72;;;;;;;19.03;87.95;96512.36;1729358;81;20947;-85
2022/09/27 08:05:42;;;;;;;8.55;5.03;;;;;;;19.51;86.31;96512.60;1727766;82;20982;-87
2022/09/27 08:08:08;;;;;;;6.95;3.95;;;;;;;19.96;85.15;96514.89;1734616;81;21976;-85
2022/09/27 08:10:34;;;;;;;8.70;4.50;;;;;;;19.76;78.56;96514.88;1730587;81;20933;-85
2022/09/27 08:13:02;;;;;;;8.73;4.58;;;;;;;19.37;79.81;96515.95;1734255;80;21012;-86
2022/09/27 08:15:31;;;;;;;8.13;4.78;;;;;;;18.96;80.26;96511.46;1729866;81;21039;-86
2022/09/27 08:17:57;;;;;;;10.13;5.30;;;;;;;19.40;80.33;96517.97;1736644;80;21044;-86
2022/09/27 08:20:23;;;;;;;7.95;4.55;;;;;;;19.60;71.67;96516.47;1743184;81;21839;-86
2022/09/27 08:22:49;;;;;;;7.75;5.50;;;;;;;20.48;76.49;96511.09;1767561;79;21615;-86
2022/09/27 08:25:15;;;;;;;7.55;4.53;;;;;;;21.03;75.31;96512.48;1760166;79;20961;-86
2022/09/27 08:27:41;;;;;;;13.85;12.65;;;;;;;20.25;76.59;96515.40;1730898;80;21046;-86
2022/09/27 08:30:08;;;;;;;7.03;6.33;;;;;;;20.60;75.50;96516.12;1752843;80;20970;-86
2022/09/27 08:32:35;;;;;;;9.40;4.72;;;;;;;21.67;72.65;96510.06;1746324;80;21074;-86
2022/09/27 08:35:01;;;;;;;7.70;5.03;;;;;;;22.02;71.98;96507.20;1722485;81;21568;-90
2022/09/27 08:37:28;;;;;;;9.50;4.53;;;;;;;21.23;71.65;96497.84;1731855;80;21028;-86
2022/09/27 08:39:54;;;;;;;5.37;3.30;;;;;;;21.60;71.48;96499.01;1724336;81;21192;-90
2022/09/27 08:42:41;;;;;;;4.65;3.70;;;;;;;22.67;68.76;96502.58;1737040;80;20894;-86
2022/09/27 08:45:23;;;;;;;4.50;4.03;;;;;;;21.87;70.02;96500.86;1730517;81;21790;-91
2022/09/27 08:48:00;;;;;;;5.20;4.17;;;;;;;21.75;69.21;96494.93;1727051;81;21483;-86
2022/09/27 08:50:35;;;;;;;5.00;4.10;;;;;;;21.76;67.64;96493.16;1696677;81;21043;-89
2022/09/27 08:53:14;;;;;;;7.05;4.12;;;;;;;20.78;66.93;96495.80;1755370;80;21068;-90
2022/09/27 08:55:53;;;;;;;7.05;4.50;;;;;;;20.16;69.91;96487.98;1766024;80;21054;-85
2022/09/27 08:58:39;;;;;;;8.65;4.83;;;;;;;19.63;70.73;96490.98;1737642;81;21170;-86
2022/09/27 09:01:11;;;;;;;8.03;4.50;;;;;;;19.20;71.22;96483.56;1726504;79;21098;-85
2022/09/27 09:03:41;;;;;;;7.58;4.70;;;;;;;18.86;72.05;96479.37;1723691;81;21052;-85
2022/09/27 09:06:30;;;;;;;16.75;6.10;;;;;;;18.46;73.76;96473.67;1750421;80;21772;-85
2022/09/27 09:09:23;;;;;;;9.58;5.05;;;;;;;18.24;74.93;96471.94;1758317;80;21502;-89
2022/09/27 09:12:48;;;;;;;7.08;5.00;;;;;;;18.02;75.42;96468.61;1752742;80;21169;-85
2022/09/27 09:15:53;;;;;;;7.22;4.35;;;;;;;17.90;76.11;96467.44;1748281;80;21083;-90
2022/09/27 09:18:53;;;;;;;8.73;4.83;;;;;;;17.73;76.01;96455.79;1749050;80;21080;-90
2022/09/27 09:21:25;;;;;;;9.40;4.03;;;;;;;17.61;77.42;96445.56;1748954;80;21046;-85
2022/09/27 09:24:09;;;;;;;5.20;3.75;;;;;;;17.60;76.81;96438.48;1751685;80;21114;-89
2022/09/27 09:26:45;;;;;;;4.12;3.65;;;;;;;17.58;77.74;96431.20;1724796;82;21084;-85
2022/09/27 09:29:23;;;;;;;4.53;3.33;;;;;;;17.52;78.17;96427.99;1699358;83;21095;-90
2022/09/27 09:32:10;;;;;;;7.55;3.72;;;;;;;17.27;76.37;96422.04;1720119;81;21051;-85
2022/09/27 09:34:42;;;;;;;4.67;3.30;;;;;;;17.37;77.10;96414.60;1710797;83;21084;-87
2022/09/27 09:37:37;;;;;;;5.42;3.75;;;;;;;17.63;77.57;96410.37;1726774;82;21008;-86
2022/09/27 09:40:24;;;;;;;6.17;3.92;;;;;;;17.74;77.12;96408.64;1724768;83;21880;-89
2022/09/27 09:43:04;;;;;;;6.40;3.40;;;;;;;17.76;77.12;96403.59;1733432;80;21052;-89
2022/09/27 09:45:33;;;;;;;3.70;3.12;;;;;;;17.71;77.55;96401.95;1761919;79;21013;-86
2022/09/27 09:48:07;;;;;;;5.87;3.45;;;;;;;17.66;77.96;96400.84;1773615;79;21603;-89
2022/09/27 09:50:43;;;;;;;4.00;3.42;;;;;;;17.66;78.58;96398.11;1757710;79;21627;-85
2022/09/27 09:53:20;;;;;;;8.00;5.20;;;;;;;17.67;77.94;96400.27;1763898;79;21205;-89
2022/09/27 09:55:51;;;;;;;5.25;4.12;;;;;;;17.54;77.32;96396.92;1755302;80;21079;-86
2022/09/27 09:58:32;;;;;;;5.33;3.85;;;;;;;17.42;77.92;96391.59;1749183;81;21056;-89
2022/09/27 10:01:00;;;;;;;9.55;4.85;;;;;;;17.38;77.91;96391.55;1742732;80;21377;-85
2022/09/27 10:03:25;;;;;;;10.58;4.95;;;;;;;17.40;77.97;96389.81;1752078;80;21016;-90
2022/09/27 10:05:51;;;;;;;5.53;4.00;;;;;;;17.39;77.74;96381.38;1755178;80;22025;-85
2022/09/27 10:08:21;;;;;;;5.47;4.22;;;;;;;17.43;78.27;96383.59;1768384;80;20892;-85
2022/09/27 10:10:47;;;;;;;9.90;5.50;;;;;;;17.45;78.06;96378.57;1754134;80;21779;-85
2022/09/27 10:13:19;;;;;;;6.65;3.90;;;;;;;17.39;79.02;96373.96;1756622;81;21056;-86
2022/09/27 10:15:53;;;;;;;4.53;3.75;;;;;;;17.48;78.87;96372.36;1723118;81;21066;-89
2022/09/27 10:18:19;;;;;;;4.37;3.80;;;;;;;17.45;79.76;96366.25;1726700;81;22048;-89
2022/09/27 10:20:52;;;;;;;6.42;3.33;;;;;;;17.44;79.13;96362.72;1717986;82;21028;-88
2022/09/27 10:23:20;;;;;;;3.87;3.22;;;;;;;17.56;79.17;96363.11;1724752;81;21024;-88
2022/09/27 10:25:59;;;;;;;4.50;3.07;;;;;;;17.44;77.75;96356.45;1751874;80;21036;-85
2022/09/27 10:28:31;;;;;;;5.97;3.30;;;;;;;17.53;78.74;96353.48;1755444;80;21085;-87
2022/09/27 10:31:00;;;;;;;3.72;2.92;;;;;;;17.56;78.93;96359.59;1757892;80;21073;-89
2022/09/27 10:33:27;;;;;;;9.80;3.70;;;;;;;17.62;78.85;96353.45;1757734;80;21015;-89
2022/09/27 10:35:52;;;;;;;3.87;2.70;;;;;;;17.67;78.59;96343.54;1750465;80;21088;-85
2022/09/27 10:38:27;;;;;;;5.58;2.62;;;;;;;17.59;77.39;96347.31;1767186;80;20877;-85
2022/09/27 10:41:02;;;;;;;3.67;2.58;;;;;;;17.75;77.65;96351.33;1733464;81;21011;-88
2022/09/27 10:43:33;;;;;;;3.50;2.80;;;;;;;17.87;76.08;96354.47;1731797;81;21130;-86
2022/09/27 10:46:20;;;;;;;5.67;3.33;;;;;;;17.87;75.74;96350.36;1739990;81;21047;-89
2022/09/27 10:48:46;;;;;;;4.25;2.67;;;;;;;17.87;76.31;96351.73;1749871;80;21032;-85
2022/09/27 10:51:30;;;;;;;5.30;2.50;;;;;;;17.93;75.17;96347.50;1753895;80;20956;-88
2022/09/27 10:53:59;;;;;;;3.80;2.85;;;;;;;18.06;74.53;96354.38;1762539;79;21494;-86
2022/09/27 10:56:28;;;;;;;7.37;2.92;;;;;;;18.09;74.10;96350.10;1764777;80;22331;-86
2022/09/27 10:58:55;;;;;;;6.55;3.37;;;;;;;18.27;74.73;96347.04;1727177;80;21036;-85
2022/09/27 11:01:21;;;;;;;4.55;2.85;;;;;;;18.32;74.21;96343.98;1765477;80;21052;-86
2022/09/27 11:03:56;;;;;;;4.20;2.65;;;;;;;18.17;75.09;96343.56;1760785;80;21284;-89
2022/09/27 11:06:27;;;;;;;2.70;2.15;;;;;;;18.09;74.65;96344.04;1751980;80;21091;-89
2022/09/27 11:08:54;;;;;;;7.87;3.20;;;;;;;17.99;72.18;96335.87;1753003;80;21105;-86
2022/09/27 11:11:26;;;;;;;4.67;2.70;;;;;;;18.11;74.56;96334.86;1725874;80;21002;-86
2022/09/27 11:14:06;;;;;;;3.95;2.52;;;;;;;18.04;75.44;96334.78;1746202;80;21092;-86
2022/09/27 11:16:55;;;;;;;2.85;1.92;;;;;;;18.04;76.60;96329.30;1753788;80;21439;-87
2022/09/27 11:19:42;;;;;;;4.08;2.45;;;;;;;17.95;73.71;96329.56;1720700;81;21187;-85
2022/09/27 11:22:28;;;;;;;5.85;2.83;;;;;;;18.04;75.00;96324.61;1746623;78;21109;-84
2022/09/27 11:25:20;;;;;;;4.58;2.90;;;;;;;18.12;75.41;96323.34;1757898;80;21017;-87
2022/09/27 11:28:00;;;;;;;5.17;3.27;;;;;;;18.28;75.56;96320.62;1760816;80;21430;-85
2022/09/27 11:30:35;;;;;;;4.40;3.17;;;;;;;18.46;75.88;96322.84;1755027;81;21838;-87
2022/09/27 11:33:26;;;;;;;5.60;3.22;;;;;;;18.54;74.35;96321.75;1744353;80;21017;-85
2022/09/27 11:36:20;;;;;;;4.65;3.25;;;;;;;18.56;75.18;96313.38;1711065;81;21167;-85
2022/09/27 11:39:19;;;;;;;5.53;3.40;;;;;;;18.70;74.92;96306.50;1721899;81;21062;-85
2022/09/27 11:42:14;;;;;;;4.62;3.20;;;;;;;18.76;74.52;96307.76;1749109;80;21115;-85
2022/09/27 11:44:57;;;;;;;4.28;3.15;;;;;;;18.76;74.98;96304.43;1752842;80;21084;-87
2022/09/27 11:47:49;;;;;;;3.62;2.70;;;;;;;18.74;74.42;96304.02;1679239;81;21102;-85
2022/09/27 11:50:42;;;;;;;5.25;3.55;;;;;;;18.70;73.95;96299.64;1697252;81;21801;-87
2022/09/27 11:53:46;;;;;;;4.97;3.67;;;;;;;18.71;74.74;96298.48;1721741;81;21079;-84
2022/09/27 11:56:26;;;;;;;3.37;3.00;;;;;;;18.64;74.37;96297.02;1728764;79;21094;-87